Time;durP1;ratioP1;P1;durP2;ratioP2;P2;SDS_P1;SDS_P2;PMS_P1;PMS_P2;Temp;Humidity;BMP_temperature;BMP_pressure;BME280_temperature;BME280_humidity;BME280_pressure;Samples;Min_cycle;Max_cycle;Signal;HPM_P1;HPM_P2
2022/04/18 00:01:14;;;;;;;12.05;6.88;;;13.90;63.50;;;;;;5132415;27;20114;-66
2022/04/18 00:03:40;;;;;;;17.40;7.18;;;13.90;63.60;;;;;;5132624;27;20034;-66
2022/04/18 00:06:06;;;;;;;17.00;7.13;;;13.90;63.10;;;;;;5132427;27;20043;-66
2022/04/18 00:08:31;;;;;;;14.32;6.45;;;13.80;63.30;;;;;;5131671;27;20140;-66
2022/04/18 00:10:57;;;;;;;15.18;6.55;;;13.80;62.50;;;;;;5132659;27;20037;-65
2022/04/18 00:13:23;;;;;;;14.70;7.07;;;13.70;62.40;;;;;;5132057;27;20363;-66
2022/04/18 00:15:49;;;;;;;14.00;6.32;;;13.70;61.70;;;;;;5131798;27;20039;-66
2022/04/18 00:18:15;;;;;;;11.73;5.90;;;13.70;62.40;;;;;;5132336;27;20027;-65
2022/04/18 00:20:40;;;;;;;14.07;6.90;;;13.60;62.30;;;;;;5132327;27;20037;-66
2022/04/18 00:23:09;;;;;;;12.93;7.25;;;13.60;62.00;;;;;;5131691;27;20031;-66
2022/04/18 00:25:34;;;;;;;17.25;7.55;;;13.50;61.90;;;;;;5131967;27;20031;-66
2022/04/18 00:28:00;;;;;;;17.17;7.32;;;13.50;62.20;;;;;;5131572;27;20039;-66
2022/04/18 00:30:26;;;;;;;17.10;7.15;;;13.50;62.50;;;;;;5112899;27;20024;-66
2022/04/18 00:32:51;;;;;;;14.45;7.88;;;13.40;62.40;;;;;;5131745;27;20023;-66
2022/04/18 00:35:17;;;;;;;13.82;7.22;;;13.40;63.50;;;;;;5132173;27;20432;-66
2022/04/18 00:37:43;;;;;;;13.07;7.43;;;13.40;63.30;;;;;;5130061;27;20031;-66
2022/04/18 00:40:11;;;;;;;17.63;7.38;;;13.30;62.10;;;;;;5103093;28;20031;-65
2022/04/18 00:42:37;;;;;;;19.70;8.60;;;13.30;62.10;;;;;;5131898;27;20439;-65
2022/04/18 00:45:03;;;;;;;13.32;7.65;;;13.30;62.00;;;;;;5120509;28;20025;-65
2022/04/18 00:47:31;;;;;;;15.15;7.78;;;13.30;61.80;;;;;;5128783;28;20101;-65
2022/04/18 00:49:57;;;;;;;13.88;7.30;;;13.20;61.90;;;;;;5131290;28;20019;-66
2022/04/18 00:52:24;;;;;;;19.35;8.02;;;13.20;62.40;;;;;;5131571;28;20530;-65
2022/04/18 00:54:52;;;;;;;14.93;7.97;;;13.20;62.30;;;;;;5123060;28;20481;-65
2022/04/18 00:57:20;;;;;;;18.20;7.28;;;13.10;62.10;;;;;;5111412;28;20023;-66
2022/04/18 00:59:46;;;;;;;16.65;7.97;;;13.00;62.00;;;;;;5131821;28;20113;-65
2022/04/18 01:02:14;;;;;;;13.52;7.55;;;13.00;62.10;;;;;;5113110;28;20561;-65
2022/04/18 01:04:40;;;;;;;16.38;7.53;;;13.00;62.30;;;;;;5112482;28;20074;-66
2022/04/18 01:07:06;;;;;;;19.55;8.35;;;12.90;62.40;;;;;;5113131;28;20043;-65
2022/04/18 01:09:35;;;;;;;14.32;7.38;;;12.90;62.50;;;;;;5113060;28;20031;-66
2022/04/18 01:12:01;;;;;;;16.73;7.85;;;12.80;62.70;;;;;;5112563;28;20374;-65
2022/04/18 01:14:27;;;;;;;17.75;7.82;;;12.80;62.60;;;;;;5131532;28;20027;-65
2022/04/18 01:17:26;;;;;;;16.55;7.20;;;12.80;62.70;;;;;;5107922;28;20558;-65
2022/04/18 01:20:34;;;;;;;17.08;7.28;;;12.70;62.70;;;;;;5048437;28;20171;-65
2022/04/18 01:23:13;;;;;;;14.75;8.50;;;12.70;63.10;;;;;;5030577;28;20423;-65
2022/04/18 01:29:01;;;;;;;15.15;6.63;;;12.70;63.20;;;;;;5011675;28;20529;-65
2022/04/18 01:31:33;;;;;;;14.40;8.05;;;12.60;64.10;;;;;;5077764;28;20039;-65
2022/04/18 01:34:00;;;;;;;15.65;7.15;;;12.50;64.40;;;;;;5116632;27;20035;-65
2022/04/18 01:36:27;;;;;;;16.52;7.22;;;12.60;65.30;;;;;;5096527;28;20047;-65
2022/04/18 01:38:54;;;;;;;12.98;7.07;;;12.50;66.10;;;;;;5096315;28;20115;-65
2022/04/18 01:41:20;;;;;;;18.80;7.68;;;12.50;66.60;;;;;;5112435;27;20032;-65
2022/04/18 01:43:46;;;;;;;17.23;7.57;;;12.50;67.10;;;;;;5135050;27;20360;-65
2022/04/18 01:46:15;;;;;;;13.75;7.57;;;12.50;67.80;;;;;;5115730;27;20047;-66
2022/04/18 01:48:40;;;;;;;12.02;6.03;;;12.50;68.10;;;;;;5098637;28;20027;-66
2022/04/18 01:51:07;;;;;;;15.77;7.38;;;12.40;69.10;;;;;;5096439;28;20042;-65
2022/04/18 01:53:34;;;;;;;13.27;7.07;;;12.40;69.40;;;;;;5095433;28;20429;-66
2022/04/18 01:55:59;;;;;;;17.38;8.75;;;12.40;69.10;;;;;;5102592;28;20032;-65
2022/04/18 01:58:31;;;;;;;18.83;6.85;;;12.40;69.00;;;;;;5113228;27;20027;-65
2022/04/18 02:00:57;;;;;;;14.75;7.53;;;12.30;69.50;;;;;;5115900;27;20027;-65
2022/04/18 02:03:23;;;;;;;17.58;7.53;;;12.30;69.90;;;;;;5109498;28;20066;-66
2022/04/18 02:05:52;;;;;;;15.02;8.30;;;12.30;69.90;;;;;;5116090;27;20049;-65
2022/04/18 02:08:18;;;;;;;14.45;8.60;;;12.30;69.20;;;;;;5095111;28;20029;-65
2022/04/18 02:10:47;;;;;;;15.02;8.55;;;12.20;69.10;;;;;;5095938;28;20031;-65
2022/04/18 02:13:17;;;;;;;19.40;8.35;;;12.20;69.00;;;;;;5102796;28;20034;-66
2022/04/18 02:15:43;;;;;;;17.13;7.97;;;12.20;69.20;;;;;;5119637;27;20149;-65
2022/04/18 02:18:09;;;;;;;12.65;6.60;;;12.10;69.60;;;;;;5116109;27;20121;-65
2022/04/18 02:20:34;;;;;;;17.35;8.35;;;12.10;69.90;;;;;;5132918;27;20106;-65
2022/04/18 02:23:00;;;;;;;16.00;7.72;;;12.10;69.70;;;;;;5108188;27;20034;-65
2022/04/18 02:25:26;;;;;;;17.77;8.15;;;12.10;69.40;;;;;;5134425;27;20036;-65
2022/04/18 02:27:57;;;;;;;16.90;8.25;;;12.10;69.40;;;;;;5115713;27;20035;-65
2022/04/18 02:30:22;;;;;;;16.55;8.50;;;12.00;69.40;;;;;;5121028;27;20034;-65
2022/04/18 02:32:49;;;;;;;17.15;8.77;;;12.00;69.00;;;;;;5106226;27;20082;-65
2022/04/18 02:35:21;;;;;;;16.92;7.57;;;12.00;69.10;;;;;;5112062;27;20398;-66
2022/04/18 02:37:50;;;;;;;17.63;8.23;;;11.90;68.70;;;;;;5107343;27;20038;-65
2022/04/18 02:40:20;;;;;;;14.38;7.68;;;11.90;68.90;;;;;;5115692;27;20051;-65
2022/04/18 02:42:46;;;;;;;18.52;8.48;;;11.90;69.60;;;;;;5114866;27;20023;-65
2022/04/18 02:45:14;;;;;;;23.45;9.35;;;11.90;69.20;;;;;;5111774;28;20043;-65
2022/04/18 02:48:09;;;;;;;15.18;8.57;;;11.90;69.30;;;;;;5103510;28;20058;-65
2022/04/18 02:50:39;;;;;;;21.33;8.90;;;11.80;69.10;;;;;;5111312;28;20047;-65
2022/04/18 02:53:06;;;;;;;17.95;8.75;;;11.70;68.90;;;;;;5112142;28;20051;-65
2022/04/18 02:55:44;;;;;;;19.77;9.18;;;11.70;69.10;;;;;;5100872;28;20138;-65
2022/04/18 02:58:09;;;;;;;21.40;8.07;;;11.70;68.80;;;;;;5103523;28;20066;-65
2022/04/18 03:00:36;;;;;;;18.25;7.82;;;11.60;69.00;;;;;;5101115;28;20035;-65
2022/04/18 03:03:05;;;;;;;18.33;8.38;;;11.60;69.20;;;;;;5109079;28;20023;-65
2022/04/18 03:05:34;;;;;;;17.48;8.80;;;11.60;69.00;;;;;;5104873;28;20161;-65
2022/04/18 03:07:59;;;;;;;18.30;9.27;;;11.60;69.30;;;;;;5110090;28;20118;-65
2022/04/18 03:13:11;;;;;;;18.17;8.90;;;11.50;69.60;;;;;;5100216;28;20568;-65
2022/04/18 03:15:37;;;;;;;16.92;7.68;;;11.40;69.30;;;;;;5108142;28;20031;-65
2022/04/18 03:18:03;;;;;;;20.45;8.43;;;11.40;69.90;;;;;;5111058;28;20023;-65
2022/04/18 03:20:29;;;;;;;21.30;8.70;;;11.40;70.20;;;;;;5111092;28;20050;-66
2022/04/18 03:22:55;;;;;;;17.40;7.80;;;11.40;70.40;;;;;;5111416;28;20035;-65
2022/04/18 03:25:40;;;;;;;17.42;8.65;;;11.30;70.80;;;;;;5110699;28;20058;-65
2022/04/18 03:28:06;;;;;;;16.35;7.72;;;11.30;70.60;;;;;;5112614;28;20024;-65
2022/04/18 03:30:32;;;;;;;16.15;6.25;;;11.30;71.30;;;;;;5110342;28;20550;-65
2022/04/18 03:32:57;;;;;;;15.82;8.10;;;11.30;71.70;;;;;;5109119;28;20030;-65
2022/04/18 03:35:23;;;;;;;15.68;6.97;;;11.20;71.70;;;;;;5111298;28;20130;-65
2022/04/18 03:40:40;;;;;;;12.38;5.32;;;11.20;71.90;;;;;;5111370;28;20031;-66
2022/04/18 03:43:06;;;;;;;16.13;7.50;;;11.10;72.30;;;;;;5112582;28;20119;-66
2022/04/18 03:45:32;;;;;;;17.40;7.50;;;11.10;71.90;;;;;;5110144;28;20234;-67
2022/04/18 03:47:58;;;;;;;16.83;7.40;;;11.10;71.80;;;;;;5112171;28;20120;-65
2022/04/18 03:50:23;;;;;;;16.70;8.35;;;11.00;71.80;;;;;;5110621;28;20754;-65
2022/04/18 03:52:49;;;;;;;16.70;6.65;;;11.00;71.60;;;;;;5111717;28;20207;-65
2022/04/18 03:55:26;;;;;;;17.65;8.43;;;11.10;71.70;;;;;;5110004;28;20035;-65
2022/04/18 03:57:53;;;;;;;15.68;7.50;;;11.00;71.90;;;;;;5099600;28;20050;-65
2022/04/18 04:00:19;;;;;;;16.35;8.40;;;11.00;72.30;;;;;;5108353;28;20023;-65
2022/04/18 04:02:49;;;;;;;17.13;8.38;;;11.00;72.10;;;;;;5110714;28;20039;-65
2022/04/18 04:05:21;;;;;;;16.65;7.95;;;11.00;72.80;;;;;;5110074;28;20046;-65
2022/04/18 04:07:50;;;;;;;15.40;7.85;;;11.00;73.50;;;;;;5109649;28;20479;-65
2022/04/18 04:10:26;;;;;;;26.52;9.50;;;10.90;72.80;;;;;;5110629;28;20031;-65
2022/04/18 04:12:52;;;;;;;17.90;8.05;;;10.90;72.80;;;;;;5110304;28;20042;-65
2022/04/18 04:15:37;;;;;;;17.90;8.38;;;10.80;72.80;;;;;;5110857;28;20513;-65
2022/04/18 04:18:08;;;;;;;22.38;9.43;;;10.80;72.40;;;;;;5111786;28;20050;-65
2022/04/18 04:20:37;;;;;;;18.60;8.68;;;10.80;72.20;;;;;;5103549;28;20028;-65
2022/04/18 04:23:03;;;;;;;14.40;8.02;;;10.80;72.10;;;;;;5109449;28;20119;-65
2022/04/18 04:25:51;;;;;;;18.02;8.23;;;10.70;71.90;;;;;;5099610;28;20054;-65
2022/04/18 04:28:24;;;;;;;20.60;8.88;;;10.70;72.10;;;;;;5109302;28;20031;-65
2022/04/18 04:30:49;;;;;;;16.10;7.85;;;10.70;71.90;;;;;;5107474;28;20070;-65
2022/04/18 04:33:15;;;;;;;16.83;8.48;;;10.60;72.00;;;;;;5103145;28;20043;-66
2022/04/18 04:35:43;;;;;;;21.02;8.88;;;10.60;72.00;;;;;;5101689;28;20084;-65
2022/04/18 04:38:12;;;;;;;17.83;8.40;;;10.60;71.80;;;;;;5097170;28;20142;-65
2022/04/18 04:40:58;;;;;;;24.42;8.18;;;10.60;72.00;;;;;;5110835;28;20135;-65
2022/04/18 04:43:42;;;;;;;15.70;7.07;;;10.50;72.90;;;;;;5109392;28;20102;-65
2022/04/18 04:46:12;;;;;;;19.67;9.05;;;10.60;72.20;;;;;;5096929;28;20051;-65
2022/04/18 04:48:48;;;;;;;16.35;8.38;;;10.50;72.10;;;;;;5110034;28;20112;-66
2022/04/18 04:51:17;;;;;;;20.65;8.40;;;10.50;72.00;;;;;;5109991;28;20386;-65
2022/04/18 04:53:44;;;;;;;17.63;8.50;;;10.50;72.00;;;;;;5109722;28;20044;-65
2022/04/18 04:56:14;;;;;;;22.05;8.38;;;10.50;72.00;;;;;;5097456;28;20120;-65
2022/04/18 04:58:40;;;;;;;18.77;8.27;;;10.40;71.90;;;;;;5109423;28;20059;-65
2022/04/18 05:01:07;;;;;;;16.25;8.52;;;10.40;71.90;;;;;;5108237;28;20039;-65
2022/04/18 05:03:48;;;;;;;18.52;9.23;;;10.40;72.00;;;;;;5107920;28;20085;-66
2022/04/18 05:06:14;;;;;;;20.38;8.70;;;10.40;72.10;;;;;;5107633;28;20044;-65
2022/04/18 05:08:43;;;;;;;19.85;9.73;;;10.40;72.10;;;;;;5111744;28;20101;-66
2022/04/18 05:11:09;;;;;;;18.15;8.23;;;10.30;72.10;;;;;;5112381;28;20028;-65
2022/04/18 05:13:44;;;;;;;23.48;9.32;;;10.30;72.20;;;;;;5112432;28;20023;-65
2022/04/18 05:16:11;;;;;;;16.90;8.02;;;10.30;72.20;;;;;;5112674;28;20028;-65
2022/04/18 05:19:03;;;;;;;19.55;9.13;;;10.20;72.40;;;;;;5109777;28;20039;-65
2022/04/18 05:21:29;;;;;;;18.63;9.85;;;10.20;72.50;;;;;;5109550;28;20048;-65
2022/04/18 05:24:01;;;;;;;18.95;9.65;;;10.20;72.50;;;;;;5112150;28;20027;-65
2022/04/18 05:26:28;;;;;;;18.77;8.80;;;10.20;72.60;;;;;;5115076;28;20032;-65
2022/04/18 05:28:53;;;;;;;18.60;9.23;;;10.20;72.70;;;;;;5113326;28;20065;-65
2022/04/18 05:31:20;;;;;;;20.27;8.63;;;10.10;72.80;;;;;;5106459;28;20119;-65
2022/04/18 05:33:48;;;;;;;15.82;6.95;;;10.20;72.90;;;;;;5107668;28;20497;-65
2022/04/18 05:36:27;;;;;;;18.42;8.73;;;10.20;73.30;;;;;;5112131;28;20424;-65
2022/04/18 05:38:52;;;;;;;16.77;9.13;;;10.20;73.40;;;;;;5111700;28;20058;-65
2022/04/18 05:41:31;;;;;;;16.23;8.02;;;10.20;73.60;;;;;;5113516;28;20030;-65
2022/04/18 05:43:57;;;;;;;18.95;8.68;;;10.10;73.80;;;;;;5113165;28;20043;-65
2022/04/18 05:46:28;;;;;;;16.65;8.05;;;10.20;74.10;;;;;;5112221;28;20463;-65
2022/04/18 05:48:57;;;;;;;17.05;7.63;;;10.10;74.30;;;;;;5112892;28;20049;-65
2022/04/18 05:51:23;;;;;;;18.92;9.60;;;10.20;74.50;;;;;;5103986;28;20040;-66
2022/04/18 05:53:48;;;;;;;18.55;8.68;;;10.20;74.70;;;;;;5110851;28;20115;-66
2022/04/18 05:56:14;;;;;;;18.02;9.52;;;10.10;74.60;;;;;;5114730;28;20138;-67
2022/04/18 05:58:45;;;;;;;21.60;9.10;;;10.10;74.70;;;;;;5112901;28;20016;-66
2022/04/18 06:01:29;;;;;;;16.63;8.68;;;10.10;74.80;;;;;;5113429;28;20069;-64
2022/04/18 06:03:56;;;;;;;17.63;8.85;;;10.10;74.80;;;;;;5113187;28;20605;-64
2022/04/18 06:06:23;;;;;;;18.88;9.10;;;10.20;74.90;;;;;;5098401;28;20035;-64
2022/04/18 06:08:49;;;;;;;17.67;8.88;;;10.10;75.00;;;;;;5113058;28;20391;-64
2022/04/18 06:11:21;;;;;;;13.50;6.97;;;10.10;75.20;;;;;;5113881;28;20024;-66
2022/04/18 06:14:08;;;;;;;20.92;10.35;;;10.20;75.40;;;;;;5112004;28;20051;-64
2022/04/18 06:16:36;;;;;;;18.02;8.65;;;10.20;75.90;;;;;;5111512;28;20038;-64
2022/04/18 06:19:03;;;;;;;19.13;9.32;;;10.10;75.90;;;;;;5109710;28;20102;-64
2022/04/18 06:21:29;;;;;;;20.33;9.75;;;10.20;75.90;;;;;;5110442;28;20063;-64
2022/04/18 06:23:55;;;;;;;19.92;9.77;;;10.20;76.00;;;;;;5109496;28;20019;-64
2022/04/18 06:26:41;;;;;;;23.02;9.13;;;10.20;76.00;;;;;;5110136;28;20486;-64
2022/04/18 06:29:07;;;;;;;20.77;10.65;;;10.20;76.10;;;;;;5109293;28;20031;-63
2022/04/18 06:31:38;;;;;;;19.70;9.48;;;10.30;76.30;;;;;;5105182;28;20035;-64
2022/04/18 06:34:05;;;;;;;22.85;10.30;;;10.30;76.30;;;;;;5109674;28;20156;-64
2022/04/18 06:36:33;;;;;;;18.90;10.18;;;10.30;76.30;;;;;;5108570;28;20515;-64
2022/04/18 06:39:24;;;;;;;19.20;9.27;;;10.30;76.40;;;;;;5106367;28;20053;-64
2022/04/18 06:42:00;;;;;;;19.70;9.32;;;10.40;77.10;;;;;;5108259;28;20038;-64
2022/04/18 06:44:30;;;;;;;23.50;9.68;;;10.40;76.50;;;;;;5100656;28;20030;-64
2022/04/18 06:46:57;;;;;;;19.05;9.75;;;10.40;76.60;;;;;;5109123;28;20039;-64
2022/04/18 06:49:47;;;;;;;17.48;8.95;;;10.40;76.70;;;;;;5080605;28;20032;-64
2022/04/18 06:52:41;;;;;;;17.60;8.77;;;10.50;76.70;;;;;;5085723;28;20039;-64
2022/04/18 06:55:25;;;;;;;16.77;8.40;;;10.50;76.50;;;;;;5110686;28;20055;-64
2022/04/18 06:57:51;;;;;;;13.60;6.93;;;10.60;76.80;;;;;;5098353;28;20068;-64
2022/04/18 07:00:17;;;;;;;22.02;8.98;;;10.60;76.80;;;;;;5110177;28;20024;-64
2022/04/18 07:02:46;;;;;;;18.63;9.95;;;10.70;76.90;;;;;;5109600;28;20122;-65
2022/04/18 07:05:12;;;;;;;21.25;9.25;;;10.70;77.00;;;;;;5108087;28;20081;-65
2022/04/18 07:07:38;;;;;;;18.98;10.05;;;10.70;77.10;;;;;;5111861;28;20470;-65
2022/04/18 07:10:04;;;;;;;17.40;8.90;;;10.80;77.20;;;;;;5109659;28;20114;-65
2022/04/18 07:12:31;;;;;;;18.45;8.95;;;10.80;77.40;;;;;;5108507;28;20054;-65
2022/04/18 07:14:59;;;;;;;19.95;8.95;;;10.80;77.50;;;;;;5110803;28;20019;-66
2022/04/18 07:17:25;;;;;;;17.00;9.00;;;10.90;77.50;;;;;;5109122;28;20114;-65
2022/04/18 07:19:53;;;;;;;19.13;8.32;;;10.90;77.60;;;;;;5109445;28;20043;-64
2022/04/18 07:22:23;;;;;;;21.10;9.43;;;11.00;77.70;;;;;;5111609;28;20023;-71
2022/04/18 07:24:52;;;;;;;14.48;7.95;;;11.10;77.70;;;;;;5110356;28;20505;-70
2022/04/18 07:27:21;;;;;;;16.27;8.60;;;11.20;77.70;;;;;;5111256;28;20039;-65
2022/04/18 07:29:55;;;;;;;16.60;8.80;;;11.20;77.70;;;;;;5109281;28;20024;-65
2022/04/18 07:32:21;;;;;;;15.35;7.80;;;11.20;77.60;;;;;;5105375;28;20028;-65
2022/04/18 07:34:47;;;;;;;14.65;7.63;;;11.30;77.50;;;;;;5109916;28;20082;-65
2022/04/18 07:37:23;;;;;;;15.68;7.78;;;11.40;77.20;;;;;;5110815;28;20100;-65
2022/04/18 07:39:49;;;;;;;13.45;7.15;;;11.40;76.40;;;;;;5110297;28;20020;-65
2022/04/18 07:42:15;;;;;;;13.15;6.50;;;11.50;75.90;;;;;;5110607;28;20042;-65
2022/04/18 07:44:44;;;;;;;11.02;6.45;;;11.50;75.80;;;;;;5110166;28;20028;-65
2022/04/18 07:47:10;;;;;;;14.27;7.22;;;11.50;75.60;;;;;;5110752;28;20051;-65
2022/04/18 07:49:36;;;;;;;15.70;6.47;;;11.60;75.50;;;;;;5110627;28;20031;-65
2022/04/18 07:52:02;;;;;;;13.75;7.55;;;11.60;75.50;;;;;;5104391;28;20828;-68
2022/04/18 07:54:35;;;;;;;15.50;8.18;;;11.70;75.30;;;;;;5103434;28;20509;-67
2022/04/18 07:57:02;;;;;;;10.82;6.85;;;11.70;75.30;;;;;;5110683;28;20038;-66
2022/04/18 07:59:36;;;;;;;16.35;6.95;;;11.80;75.20;;;;;;5109643;28;20036;-65
2022/04/18 08:02:08;;;;;;;12.43;7.03;;;11.90;75.10;;;;;;5110601;28;20072;-65
2022/04/18 08:04:55;;;;;;;13.25;6.75;;;11.90;75.20;;;;;;5107964;28;20660;-67
2022/04/18 08:07:31;;;;;;;9.68;5.13;;;11.90;75.30;;;;;;5108989;28;20474;-66
2022/04/18 08:09:57;;;;;;;13.20;6.35;;;12.00;75.40;;;;;;5109914;28;20038;-66
2022/04/18 08:12:24;;;;;;;25.40;7.53;;;12.10;75.70;;;;;;5108244;28;20031;-66
2022/04/18 08:15:08;;;;;;;;;;;12.10;75.40;;;;;;5111711;28;20134;-64
2022/04/18 08:17:35;;;;;;;15.52;7.32;;;12.20;75.80;;;;;;5109929;28;20363;-66
2022/04/18 08:20:03;;;;;;;19.52;6.30;;;12.30;75.40;;;;;;5106832;28;20027;-65
2022/04/18 08:22:29;;;;;;;11.07;6.05;;;12.30;75.30;;;;;;5110291;28;20078;-66
2022/04/18 08:25:13;;;;;;;13.10;6.57;;;12.40;75.20;;;;;;5111710;28;20446;-70
2022/04/18 08:27:57;;;;;;;12.07;6.72;;;12.50;75.20;;;;;;5097136;28;20046;-67
2022/04/18 08:30:30;;;;;;;14.57;7.27;;;12.60;75.20;;;;;;5109965;28;20031;-65
2022/04/18 08:33:06;;;;;;;11.32;5.90;;;12.60;74.70;;;;;;5108731;28;20027;-66
2022/04/18 08:35:32;;;;;;;13.80;6.38;;;12.70;74.90;;;;;;5109478;28;20020;-68
2022/04/18 08:38:00;;;;;;;13.27;6.65;;;12.80;75.00;;;;;;5111425;28;20458;-68
2022/04/18 08:40:40;;;;;;;11.00;6.63;;;12.80;75.10;;;;;;5111161;28;20047;-67
2022/04/18 08:43:09;;;;;;;8.60;4.82;;;12.90;74.90;;;;;;5108227;28;20426;-65
2022/04/18 08:45:38;;;;;;;9.85;5.88;;;13.00;74.60;;;;;;5106881;28;20051;-66
2022/04/18 08:53:35;;;;;;;11.43;6.05;;;13.20;74.70;;;;;;5105934;28;20046;-67
2022/04/18 08:56:04;;;;;;;18.27;5.68;;;13.30;74.50;;;;;;5107658;28;20435;-66
2022/04/18 08:58:33;;;;;;;12.13;5.60;;;13.30;75.00;;;;;;5104745;28;20096;-65
2022/04/18 09:01:02;;;;;;;10.00;5.07;;;13.40;74.70;;;;;;5105117;28;20413;-66
2022/04/18 09:03:47;;;;;;;10.63;5.95;;;13.50;74.30;;;;;;5096532;28;20038;-67
2022/04/18 09:06:15;;;;;;;11.27;6.05;;;13.60;74.40;;;;;;5104094;28;20035;-66
2022/04/18 09:08:53;;;;;;;11.60;6.30;;;13.70;73.40;;;;;;5105357;28;20020;-66
2022/04/18 09:11:33;;;;;;;10.23;5.43;;;13.70;73.50;;;;;;5090708;28;20024;-66
2022/04/18 09:14:06;;;;;;;9.18;5.28;;;13.80;72.90;;;;;;5105154;28;20114;-66
2022/04/18 09:16:33;;;;;;;10.45;5.88;;;13.80;74.30;;;;;;5103852;28;20027;-65
2022/04/18 09:19:11;;;;;;;16.20;5.88;;;13.90;74.30;;;;;;5092279;28;20376;-66
2022/04/18 09:21:59;;;;;;;8.73;4.57;;;14.00;73.60;;;;;;5105733;28;20031;-65
2022/04/18 09:24:33;;;;;;;12.32;6.18;;;14.10;74.50;;;;;;5103462;28;20055;-66
2022/04/18 09:27:32;;;;;;;10.73;4.90;;;14.10;74.30;;;;;;5103193;28;20047;-65
2022/04/18 09:30:12;;;;;;;12.82;4.68;;;14.20;73.90;;;;;;5103891;28;20024;-65
2022/04/18 09:33:02;;;;;;;8.85;5.07;;;14.20;74.30;;;;;;5104570;28;20032;-66
2022/04/18 09:35:38;;;;;;;12.43;5.55;;;14.30;73.60;;;;;;5104457;28;20520;-66
2022/04/18 09:38:11;;;;;;;11.20;5.95;;;14.30;73.20;;;;;;5087208;28;20055;-66
2022/04/18 09:41:07;;;;;;;9.32;4.68;;;14.40;73.00;;;;;;5088772;28;20035;-66
2022/04/18 09:43:41;;;;;;;12.88;5.70;;;14.50;72.30;;;;;;5106056;28;20026;-66
2022/04/18 09:46:09;;;;;;;10.75;5.43;;;14.50;72.10;;;;;;5104031;28;20112;-66
2022/04/18 09:48:41;;;;;;;11.70;5.82;;;14.60;72.30;;;;;;5105532;28;20028;-65
2022/04/18 09:51:12;;;;;;;9.70;5.50;;;14.70;73.00;;;;;;5099596;28;20069;-65
2022/04/18 09:53:52;;;;;;;9.98;5.15;;;14.70;72.10;;;;;;5108877;28;20031;-65
2022/04/18 09:56:22;;;;;;;12.90;6.10;;;14.80;72.70;;;;;;5113025;27;20036;-65
2022/04/18 09:58:49;;;;;;;12.73;5.95;;;14.90;71.70;;;;;;5111427;28;20518;-65
2022/04/18 10:01:18;;;;;;;11.43;6.10;;;14.90;71.60;;;;;;5110768;28;20028;-65
2022/04/18 10:03:44;;;;;;;8.40;4.97;;;15.00;71.40;;;;;;5111227;28;20028;-67
2022/04/18 10:06:10;;;;;;;13.70;6.35;;;15.00;71.00;;;;;;5110254;28;20035;-69
2022/04/18 10:08:37;;;;;;;11.73;5.22;;;15.20;70.00;;;;;;5109576;28;20027;-66
2022/04/18 10:11:08;;;;;;;11.10;5.55;;;15.20;71.40;;;;;;5112809;28;20059;-66
2022/04/18 10:13:35;;;;;;;7.78;3.83;;;15.30;70.90;;;;;;5112212;28;20031;-66
2022/04/18 10:16:01;;;;;;;11.27;5.15;;;15.40;72.00;;;;;;5114008;28;20027;-66
2022/04/18 10:18:28;;;;;;;10.27;5.57;;;15.40;71.80;;;;;;5113944;27;20031;-66
2022/04/18 10:21:06;;;;;;;10.48;5.72;;;15.40;71.90;;;;;;5112296;28;20035;-67
2022/04/18 10:23:37;;;;;;;10.20;5.55;;;15.50;71.80;;;;;;5113622;28;20026;-66
2022/04/18 10:26:22;;;;;;;10.02;5.68;;;15.60;71.30;;;;;;5114149;28;20042;-66
2022/04/18 10:28:51;;;;;;;9.90;5.47;;;15.60;71.00;;;;;;5113345;27;20035;-66
2022/04/18 10:31:39;;;;;;;12.27;5.32;;;15.70;70.40;;;;;;5108392;28;20035;-66
2022/04/18 10:34:08;;;;;;;10.10;5.50;;;15.80;70.50;;;;;;5111618;28;20458;-66
2022/04/18 10:36:35;;;;;;;10.90;5.90;;;15.90;69.90;;;;;;5112716;28;20151;-66
2022/04/18 10:39:06;;;;;;;9.50;5.70;;;16.00;69.50;;;;;;5113228;28;20020;-66
2022/04/18 10:41:45;;;;;;;10.65;5.53;;;16.00;68.70;;;;;;5112911;28;20088;-66
2022/04/18 10:44:38;;;;;;;9.18;5.53;;;16.20;69.00;;;;;;5093842;28;20538;-67
2022/04/18 10:47:04;;;;;;;10.77;5.60;;;16.20;68.80;;;;;;5102341;28;20506;-67
2022/04/18 10:49:33;;;;;;;11.57;6.15;;;16.20;69.20;;;;;;5110277;28;20031;-67
2022/04/18 10:52:09;;;;;;;9.18;5.07;;;16.40;69.20;;;;;;5112451;28;20019;-67
2022/04/18 10:54:36;;;;;;;13.60;5.78;;;16.40;68.70;;;;;;5108433;28;20031;-68
2022/04/18 10:57:02;;;;;;;11.50;5.25;;;16.40;68.00;;;;;;5110061;28;20031;-68
2022/04/18 10:59:32;;;;;;;11.75;5.30;;;16.50;67.80;;;;;;5110565;28;20081;-67
2022/04/18 11:02:01;;;;;;;8.50;4.47;;;16.60;68.30;;;;;;5107038;28;20074;-68
2022/04/18 11:04:47;;;;;;;11.88;5.45;;;16.70;67.50;;;;;;5107480;28;20059;-67
2022/04/18 11:07:14;;;;;;;8.02;4.95;;;16.70;67.70;;;;;;5110013;28;20368;-67
2022/04/18 11:09:44;;;;;;;6.93;4.15;;;16.70;67.20;;;;;;5109948;28;20019;-68
2022/04/18 11:12:10;;;;;;;9.60;5.18;;;16.80;66.40;;;;;;5111714;28;20100;-66
2022/04/18 11:14:38;;;;;;;8.00;4.70;;;16.90;66.00;;;;;;5111122;28;20023;-67
2022/04/18 11:17:06;;;;;;;7.40;4.40;;;16.90;65.00;;;;;;5108082;28;20494;-67
2022/04/18 11:19:36;;;;;;;8.32;4.63;;;17.00;65.60;;;;;;5103578;28;20105;-67
2022/04/18 11:22:04;;;;;;;9.00;3.60;;;17.10;66.00;;;;;;5095163;28;20395;-67
2022/04/18 11:24:49;;;;;;;10.05;4.30;;;17.10;66.00;;;;;;5107380;28;20532;-67
2022/04/18 11:27:26;;;;;;;9.23;5.22;;;17.20;66.20;;;;;;5112618;28;20085;-67
2022/04/18 11:29:59;;;;;;;12.63;5.55;;;17.30;64.50;;;;;;5099178;28;20051;-67
2022/04/18 11:32:36;;;;;;;46.58;11.70;;;17.30;65.60;;;;;;5111253;28;20070;-67
2022/04/18 11:35:05;;;;;;;13.48;5.10;;;17.30;65.20;;;;;;5102322;28;20057;-67
2022/04/18 11:37:33;;;;;;;8.65;4.53;;;17.40;64.20;;;;;;5096265;28;20027;-66
2022/04/18 11:40:01;;;;;;;7.97;4.78;;;17.40;64.50;;;;;;5112252;28;20036;-66
2022/04/18 11:42:29;;;;;;;8.05;4.57;;;17.50;66.30;;;;;;5112008;28;20069;-66
2022/04/18 11:45:09;;;;;;;8.90;3.80;;;17.50;64.40;;;;;;5111999;27;20510;-65
2022/04/18 11:47:45;;;;;;;9.05;4.10;;;17.60;63.00;;;;;;5119335;27;20398;-65
2022/04/18 11:50:15;;;;;;;8.18;4.22;;;17.60;62.80;;;;;;5131982;27;20027;-64
2022/04/18 11:52:41;;;;;;;7.13;3.80;;;17.70;63.70;;;;;;5131952;27;20054;-64
2022/04/18 11:55:11;;;;;;;11.63;4.95;;;17.70;63.40;;;;;;5128088;27;20062;-64
2022/04/18 11:57:38;;;;;;;6.65;3.85;;;17.70;63.90;;;;;;5131990;27;20031;-64
2022/04/18 12:00:09;;;;;;;7.05;4.05;;;17.70;65.20;;;;;;5131819;27;20126;-63
2022/04/18 12:08:11;;;;;;;7.80;4.78;;;17.90;61.90;;;;;;5130562;27;20460;-66
2022/04/18 12:10:40;;;;;;;7.47;4.25;;;18.00;61.20;;;;;;5130274;27;20034;-67
2022/04/18 12:13:07;;;;;;;11.88;4.88;;;18.00;59.80;;;;;;5130212;27;20035;-67
2022/04/18 12:15:34;;;;;;;6.70;4.22;;;18.00;61.00;;;;;;5131280;27;20031;-68
2022/04/18 12:18:19;;;;;;;7.70;4.50;;;18.10;61.50;;;;;;5132071;27;20027;-68
2022/04/18 12:20:47;;;;;;;7.60;4.00;;;18.20;61.00;;;;;;5116549;27;20436;-66
2022/04/18 12:23:19;;;;;;;5.88;4.05;;;18.20;59.60;;;;;;5130176;27;20031;-66
2022/04/18 12:25:46;;;;;;;6.90;3.70;;;18.30;64.20;;;;;;5130010;27;20035;-66
2022/04/18 12:28:13;;;;;;;10.15;4.50;;;18.30;61.80;;;;;;5128512;27;20047;-67
2022/04/18 12:30:39;;;;;;;7.20;4.03;;;18.40;59.80;;;;;;5125827;27;20024;-69
2022/04/18 12:33:16;;;;;;;7.68;4.35;;;18.40;60.40;;;;;;5128626;27;20467;-70
2022/04/18 12:35:48;;;;;;;5.68;3.33;;;18.50;59.70;;;;;;5130175;27;20019;-67
2022/04/18 12:38:16;;;;;;;9.82;4.70;;;18.50;61.50;;;;;;5131506;27;20042;-67
2022/04/18 12:41:06;;;;;;;6.82;3.72;;;18.50;59.70;;;;;;5131279;27;20023;-67
2022/04/18 12:43:34;;;;;;;9.45;3.80;;;18.60;59.40;;;;;;5114327;27;20043;-67
2022/04/18 12:46:09;;;;;;;7.15;3.92;;;18.60;60.30;;;;;;5131803;27;20494;-68
2022/04/18 12:48:37;;;;;;;11.50;4.32;;;18.70;60.40;;;;;;5129812;28;20493;-66
2022/04/18 12:51:05;;;;;;;9.93;4.07;;;18.70;59.50;;;;;;5131214;28;20030;-65
2022/04/18 12:53:51;;;;;;;6.95;3.55;;;18.80;59.40;;;;;;5131533;28;20035;-66
2022/04/18 12:56:21;;;;;;;5.60;2.92;;;18.80;59.40;;;;;;5119456;28;20041;-66
2022/04/18 12:59:04;;;;;;;7.22;3.85;;;18.90;60.90;;;;;;5129555;28;20039;-66
2022/04/18 13:01:32;;;;;;;7.50;3.88;;;19.00;61.70;;;;;;5123070;28;20031;-66
2022/04/18 13:03:59;;;;;;;9.10;4.05;;;19.00;61.30;;;;;;5126039;28;20046;-66
2022/04/18 13:06:28;;;;;;;6.10;3.70;;;19.10;60.80;;;;;;5127107;28;20039;-66
2022/04/18 13:09:02;;;;;;;7.50;4.18;;;19.10;58.90;;;;;;5131035;28;20106;-66
2022/04/18 13:11:38;;;;;;;7.10;4.18;;;19.10;59.10;;;;;;5131291;28;20474;-66
2022/04/18 13:14:04;;;;;;;6.25;3.60;;;19.20;58.30;;;;;;5131854;28;20027;-65
2022/04/18 13:16:30;;;;;;;5.30;3.65;;;19.30;60.30;;;;;;5130420;28;20055;-65